sensor_id;sensor_type;location;lat;lon;timestamp;P1;durP1;ratioP1;P2;durP2;ratioP2
51961;SDS011;37986;51.238;17.128;2023-11-21T00:02:26;0.20;;;0.20;;
51961;SDS011;37986;51.238;17.128;2023-11-21T00:04:53;0.20;;;0.20;;
51961;SDS011;37986;51.238;17.128;2023-11-21T00:07:20;0.20;;;0.20;;
51961;SDS011;37986;51.238;17.128;2023-11-21T00:09:47;0.20;;;0.20;;
51961;SDS011;37986;51.238;17.128;2023-11-21T00:12:14;0.30;;;0.30;;
51961;SDS011;37986;51.238;17.128;2023-11-21T00:14:41;0.20;;;0.20;;
51961;SDS011;37986;51.238;17.128;2023-11-21T00:17:07;0.20;;;0.20;;
51961;SDS011;37986;51.238;17.128;2023-11-21T00:19:34;0.30;;;0.30;;
51961;SDS011;37986;51.238;17.128;2023-11-21T00:22:01;0.20;;;0.20;;
51961;SDS011;37986;51.238;17.128;2023-11-21T00:24:27;0.20;;;0.20;;
51961;SDS011;37986;51.238;17.128;2023-11-21T00:26:54;0.20;;;0.20;;
51961;SDS011;37986;51.238;17.128;2023-11-21T00:29:20;0.30;;;0.30;;
51961;SDS011;37986;51.238;17.128;2023-11-21T00:31:47;0.30;;;0.30;;
51961;SDS011;37986;51.238;17.128;2023-11-21T00:34:13;0.20;;;0.20;;
51961;SDS011;37986;51.238;17.128;2023-11-21T00:36:40;0.20;;;0.20;;
51961;SDS011;37986;51.238;17.128;2023-11-21T00:39:06;0.20;;;0.20;;
51961;SDS011;37986;51.238;17.128;2023-11-21T00:41:34;0.20;;;0.20;;
51961;SDS011;37986;51.238;17.128;2023-11-21T00:44:00;0.20;;;0.20;;
51961;SDS011;37986;51.238;17.128;2023-11-21T00:46:28;0.30;;;0.30;;
51961;SDS011;37986;51.238;17.128;2023-11-21T00:48:55;0.30;;;0.30;;
51961;SDS011;37986;51.238;17.128;2023-11-21T00:51:21;0.30;;;0.30;;
51961;SDS011;37986;51.238;17.128;2023-11-21T00:53:48;0.40;;;0.40;;
51961;SDS011;37986;51.238;17.128;2023-11-21T00:56:15;0.20;;;0.20;;
51961;SDS011;37986;51.238;17.128;2023-11-21T00:58:42;0.30;;;0.30;;
51961;SDS011;37986;51.238;17.128;2023-11-21T01:01:10;0.20;;;0.20;;
51961;SDS011;37986;51.238;17.128;2023-11-21T01:03:36;0.20;;;0.20;;
51961;SDS011;37986;51.238;17.128;2023-11-21T01:06:03;0.30;;;0.30;;
51961;SDS011;37986;51.238;17.128;2023-11-21T01:08:30;0.20;;;0.20;;
51961;SDS011;37986;51.238;17.128;2023-11-21T01:10:57;0.20;;;0.20;;
51961;SDS011;37986;51.238;17.128;2023-11-21T01:13:24;0.30;;;0.30;;
51961;SDS011;37986;51.238;17.128;2023-11-21T01:15:54;0.30;;;0.30;;
51961;SDS011;37986;51.238;17.128;2023-11-21T01:18:21;0.30;;;0.30;;
51961;SDS011;37986;51.238;17.128;2023-11-21T01:20:48;0.20;;;0.20;;
51961;SDS011;37986;51.238;17.128;2023-11-21T01:23:15;0.40;;;0.40;;
51961;SDS011;37986;51.238;17.128;2023-11-21T01:25:41;0.30;;;0.30;;
51961;SDS011;37986;51.238;17.128;2023-11-21T01:28:08;0.20;;;0.20;;
51961;SDS011;37986;51.238;17.128;2023-11-21T01:30:34;0.20;;;0.20;;
51961;SDS011;37986;51.238;17.128;2023-11-21T01:33:01;0.20;;;0.20;;
51961;SDS011;37986;51.238;17.128;2023-11-21T01:35:29;0.20;;;0.20;;
51961;SDS011;37986;51.238;17.128;2023-11-21T01:37:56;0.20;;;0.20;;
51961;SDS011;37986;51.238;17.128;2023-11-21T01:40:23;0.20;;;0.20;;
51961;SDS011;37986;51.238;17.128;2023-11-21T01:42:50;0.30;;;0.30;;
51961;SDS011;37986;51.238;17.128;2023-11-21T01:45:19;0.20;;;0.20;;
51961;SDS011;37986;51.238;17.128;2023-11-21T01:47:46;0.20;;;0.20;;
51961;SDS011;37986;51.238;17.128;2023-11-21T01:50:16;0.70;;;0.70;;
51961;SDS011;37986;51.238;17.128;2023-11-21T01:52:44;0.30;;;0.30;;
51961;SDS011;37986;51.238;17.128;2023-11-21T01:55:11;0.30;;;0.30;;
51961;SDS011;37986;51.238;17.128;2023-11-21T01:57:41;0.30;;;0.30;;
51961;SDS011;37986;51.238;17.128;2023-11-21T02:00:07;1.40;;;1.40;;
51961;SDS011;37986;51.238;17.128;2023-11-21T02:02:46;0.20;;;0.20;;
51961;SDS011;37986;51.238;17.128;2023-11-21T02:05:16;0.30;;;0.30;;
51961;SDS011;37986;51.238;17.128;2023-11-21T02:07:45;0.30;;;0.30;;
51961;SDS011;37986;51.238;17.128;2023-11-21T02:10:14;0.30;;;0.30;;
51961;SDS011;37986;51.238;17.128;2023-11-21T02:12:41;0.30;;;0.30;;
51961;SDS011;37986;51.238;17.128;2023-11-21T02:15:09;0.20;;;0.20;;
51961;SDS011;37986;51.238;17.128;2023-11-21T02:17:41;0.30;;;0.30;;
51961;SDS011;37986;51.238;17.128;2023-11-21T02:20:13;0.30;;;0.30;;
51961;SDS011;37986;51.238;17.128;2023-11-21T02:22:48;0.30;;;0.30;;
51961;SDS011;37986;51.238;17.128;2023-11-21T02:25:19;0.30;;;0.30;;
51961;SDS011;37986;51.238;17.128;2023-11-21T02:27:45;0.30;;;0.30;;
51961;SDS011;37986;51.238;17.128;2023-11-21T02:30:14;0.30;;;0.30;;
51961;SDS011;37986;51.238;17.128;2023-11-21T02:32:42;0.30;;;0.30;;
51961;SDS011;37986;51.238;17.128;2023-11-21T02:35:09;0.20;;;0.20;;
51961;SDS011;37986;51.238;17.128;2023-11-21T02:37:36;0.30;;;0.30;;
51961;SDS011;37986;51.238;17.128;2023-11-21T02:40:02;0.30;;;0.30;;
51961;SDS011;37986;51.238;17.128;2023-11-21T02:42:32;0.20;;;0.20;;
51961;SDS011;37986;51.238;17.128;2023-11-21T02:44:59;0.30;;;0.30;;
51961;SDS011;37986;51.238;17.128;2023-11-21T02:47:25;0.30;;;0.30;;
51961;SDS011;37986;51.238;17.128;2023-11-21T02:49:52;0.20;;;0.20;;
51961;SDS011;37986;51.238;17.128;2023-11-21T02:52:18;0.20;;;0.20;;
51961;SDS011;37986;51.238;17.128;2023-11-21T02:54:45;0.30;;;0.30;;
51961;SDS011;37986;51.238;17.128;2023-11-21T02:57:12;0.20;;;0.20;;
51961;SDS011;37986;51.238;17.128;2023-11-21T02:59:38;0.30;;;0.30;;
51961;SDS011;37986;51.238;17.128;2023-11-21T03:02:05;0.30;;;0.30;;
51961;SDS011;37986;51.238;17.128;2023-11-21T03:04:34;0.20;;;0.20;;
51961;SDS011;37986;51.238;17.128;2023-11-21T03:07:01;0.30;;;0.30;;
51961;SDS011;37986;51.238;17.128;2023-11-21T03:09:28;0.20;;;0.20;;
51961;SDS011;37986;51.238;17.128;2023-11-21T03:11:54;0.20;;;0.20;;
51961;SDS011;37986;51.238;17.128;2023-11-21T03:14:21;0.20;;;0.20;;
51961;SDS011;37986;51.238;17.128;2023-11-21T03:16:48;2.10;;;2.00;;
51961;SDS011;37986;51.238;17.128;2023-11-21T03:19:15;0.30;;;0.30;;
51961;SDS011;37986;51.238;17.128;2023-11-21T03:21:42;0.20;;;0.20;;
51961;SDS011;37986;51.238;17.128;2023-11-21T03:24:08;0.20;;;0.20;;
51961;SDS011;37986;51.238;17.128;2023-11-21T03:26:35;0.30;;;0.30;;
51961;SDS011;37986;51.238;17.128;2023-11-21T03:29:03;0.20;;;0.20;;
51961;SDS011;37986;51.238;17.128;2023-11-21T03:31:31;0.20;;;0.20;;
51961;SDS011;37986;51.238;17.128;2023-11-21T03:33:57;0.20;;;0.20;;
51961;SDS011;37986;51.238;17.128;2023-11-21T03:36:24;0.30;;;0.30;;
51961;SDS011;37986;51.238;17.128;2023-11-21T03:38:51;0.20;;;0.20;;
51961;SDS011;37986;51.238;17.128;2023-11-21T03:41:18;0.30;;;0.30;;
51961;SDS011;37986;51.238;17.128;2023-11-21T03:43:44;0.20;;;0.20;;
51961;SDS011;37986;51.238;17.128;2023-11-21T03:46:11;0.30;;;0.30;;
51961;SDS011;37986;51.238;17.128;2023-11-21T03:48:38;0.30;;;0.30;;
51961;SDS011;37986;51.238;17.128;2023-11-21T03:51:05;0.30;;;0.30;;
51961;SDS011;37986;51.238;17.128;2023-11-21T03:53:32;0.30;;;0.30;;
51961;SDS011;37986;51.238;17.128;2023-11-21T03:55:58;0.30;;;0.30;;
51961;SDS011;37986;51.238;17.128;2023-11-21T03:58:25;0.30;;;0.30;;
51961;SDS011;37986;51.238;17.128;2023-11-21T04:00:51;0.20;;;0.20;;
51961;SDS011;37986;51.238;17.128;2023-11-21T04:03:18;0.30;;;0.30;;
51961;SDS011;37986;51.238;17.128;2023-11-21T04:05:45;0.20;;;0.20;;
51961;SDS011;37986;51.238;17.128;2023-11-21T04:08:12;0.30;;;0.30;;
51961;SDS011;37986;51.238;17.128;2023-11-21T04:10:38;0.20;;;0.20;;
51961;SDS011;37986;51.238;17.128;2023-11-21T04:13:05;0.30;;;0.30;;
51961;SDS011;37986;51.238;17.128;2023-11-21T04:15:32;0.40;;;0.40;;
51961;SDS011;37986;51.238;17.128;2023-11-21T04:17:59;0.20;;;0.20;;
51961;SDS011;37986;51.238;17.128;2023-11-21T04:20:26;0.30;;;0.30;;
51961;SDS011;37986;51.238;17.128;2023-11-21T04:22:52;0.30;;;0.30;;
51961;SDS011;37986;51.238;17.128;2023-11-21T04:25:20;0.30;;;0.30;;
51961;SDS011;37986;51.238;17.128;2023-11-21T04:27:46;0.30;;;0.30;;
51961;SDS011;37986;51.238;17.128;2023-11-21T04:30:13;0.20;;;0.20;;
51961;SDS011;37986;51.238;17.128;2023-11-21T04:32:40;0.50;;;0.50;;
51961;SDS011;37986;51.238;17.128;2023-11-21T04:35:08;0.30;;;0.30;;
51961;SDS011;37986;51.238;17.128;2023-11-21T04:37:35;0.30;;;0.30;;
51961;SDS011;37986;51.238;17.128;2023-11-21T04:40:01;0.30;;;0.30;;
51961;SDS011;37986;51.238;17.128;2023-11-21T04:42:33;0.30;;;0.30;;
51961;SDS011;37986;51.238;17.128;2023-11-21T04:45:06;0.30;;;0.30;;
51961;SDS011;37986;51.238;17.128;2023-11-21T04:47:37;0.30;;;0.30;;
51961;SDS011;37986;51.238;17.128;2023-11-21T04:50:04;0.30;;;0.30;;
51961;SDS011;37986;51.238;17.128;2023-11-21T04:52:32;0.30;;;0.30;;
51961;SDS011;37986;51.238;17.128;2023-11-21T04:54:59;0.30;;;0.30;;
51961;SDS011;37986;51.238;17.128;2023-11-21T04:57:27;0.30;;;0.30;;
51961;SDS011;37986;51.238;17.128;2023-11-21T04:59:54;0.30;;;0.30;;
51961;SDS011;37986;51.238;17.128;2023-11-21T05:02:21;0.30;;;0.30;;
51961;SDS011;37986;51.238;17.128;2023-11-21T05:04:48;0.60;;;0.60;;
51961;SDS011;37986;51.238;17.128;2023-11-21T05:07:14;0.30;;;0.30;;
51961;SDS011;37986;51.238;17.128;2023-11-21T05:09:42;0.30;;;0.30;;
51961;SDS011;37986;51.238;17.128;2023-11-21T05:12:12;0.30;;;0.30;;
51961;SDS011;37986;51.238;17.128;2023-11-21T05:14:39;0.30;;;0.30;;
51961;SDS011;37986;51.238;17.128;2023-11-21T05:17:05;0.30;;;0.30;;
51961;SDS011;37986;51.238;17.128;2023-11-21T05:19:34;0.30;;;0.30;;
51961;SDS011;37986;51.238;17.128;2023-11-21T05:22:01;0.30;;;0.30;;
51961;SDS011;37986;51.238;17.128;2023-11-21T05:24:28;0.20;;;0.20;;
51961;SDS011;37986;51.238;17.128;2023-11-21T05:26:55;0.30;;;0.30;;
51961;SDS011;37986;51.238;17.128;2023-11-21T05:29:22;0.30;;;0.30;;
51961;SDS011;37986;51.238;17.128;2023-11-21T05:31:48;0.30;;;0.30;;
51961;SDS011;37986;51.238;17.128;2023-11-21T05:34:15;0.80;;;0.80;;
51961;SDS011;37986;51.238;17.128;2023-11-21T05:36:43;0.30;;;0.30;;
51961;SDS011;37986;51.238;17.128;2023-11-21T05:39:11;0.30;;;0.30;;
51961;SDS011;37986;51.238;17.128;2023-11-21T05:41:38;0.30;;;0.30;;
51961;SDS011;37986;51.238;17.128;2023-11-21T05:44:05;0.20;;;0.20;;
51961;SDS011;37986;51.238;17.128;2023-11-21T05:46:31;0.30;;;0.30;;
51961;SDS011;37986;51.238;17.128;2023-11-21T05:48:58;0.60;;;0.60;;
51961;SDS011;37986;51.238;17.128;2023-11-21T05:51:24;0.30;;;0.30;;
51961;SDS011;37986;51.238;17.128;2023-11-21T05:53:51;0.30;;;0.30;;
51961;SDS011;37986;51.238;17.128;2023-11-21T05:56:17;0.30;;;0.30;;
51961;SDS011;37986;51.238;17.128;2023-11-21T05:58:44;0.30;;;0.30;;
51961;SDS011;37986;51.238;17.128;2023-11-21T06:01:10;0.30;;;0.30;;
51961;SDS011;37986;51.238;17.128;2023-11-21T06:03:39;0.20;;;0.20;;
51961;SDS011;37986;51.238;17.128;2023-11-21T06:06:05;0.30;;;0.30;;
51961;SDS011;37986;51.238;17.128;2023-11-21T06:08:33;0.30;;;0.30;;
51961;SDS011;37986;51.238;17.128;2023-11-21T06:10:59;0.20;;;0.20;;
51961;SDS011;37986;51.238;17.128;2023-11-21T06:13:26;0.30;;;0.30;;
51961;SDS011;37986;51.238;17.128;2023-11-21T06:15:53;0.20;;;0.20;;
51961;SDS011;37986;51.238;17.128;2023-11-21T06:18:20;0.20;;;0.20;;
51961;SDS011;37986;51.238;17.128;2023-11-21T06:20:46;0.20;;;0.20;;
51961;SDS011;37986;51.238;17.128;2023-11-21T06:23:13;0.30;;;0.30;;
51961;SDS011;37986;51.238;17.128;2023-11-21T06:25:40;0.30;;;0.30;;
51961;SDS011;37986;51.238;17.128;2023-11-21T06:28:07;0.30;;;0.30;;
51961;SDS011;37986;51.238;17.128;2023-11-21T06:30:33;0.20;;;0.20;;
51961;SDS011;37986;51.238;17.128;2023-11-21T06:33:00;0.20;;;0.20;;
51961;SDS011;37986;51.238;17.128;2023-11-21T06:35:27;0.60;;;0.60;;
51961;SDS011;37986;51.238;17.128;2023-11-21T06:37:56;0.20;;;0.20;;
51961;SDS011;37986;51.238;17.128;2023-11-21T06:40:23;0.30;;;0.30;;
51961;SDS011;37986;51.238;17.128;2023-11-21T06:42:50;0.30;;;0.30;;
51961;SDS011;37986;51.238;17.128;2023-11-21T06:45:17;0.30;;;0.30;;
51961;SDS011;37986;51.238;17.128;2023-11-21T06:47:45;0.30;;;0.30;;
51961;SDS011;37986;51.238;17.128;2023-11-21T06:50:12;0.20;;;0.20;;
51961;SDS011;37986;51.238;17.128;2023-11-21T06:52:38;0.30;;;0.30;;
51961;SDS011;37986;51.238;17.128;2023-11-21T06:55:05;0.20;;;0.20;;
51961;SDS011;37986;51.238;17.128;2023-11-21T06:57:34;0.30;;;0.30;;
51961;SDS011;37986;51.238;17.128;2023-11-21T07:00:00;0.20;;;0.20;;
51961;SDS011;37986;51.238;17.128;2023-11-21T07:02:27;0.30;;;0.30;;
51961;SDS011;37986;51.238;17.128;2023-11-21T07:04:55;0.20;;;0.20;;
51961;SDS011;37986;51.238;17.128;2023-11-21T07:07:21;0.20;;;0.20;;
51961;SDS011;37986;51.238;17.128;2023-11-21T07:09:48;0.30;;;0.30;;
51961;SDS011;37986;51.238;17.128;2023-11-21T07:12:15;0.20;;;0.20;;
51961;SDS011;37986;51.238;17.128;2023-11-21T07:14:41;0.30;;;0.30;;
51961;SDS011;37986;51.238;17.128;2023-11-21T07:17:11;0.30;;;0.30;;
51961;SDS011;37986;51.238;17.128;2023-11-21T07:19:38;0.30;;;0.30;;
51961;SDS011;37986;51.238;17.128;2023-11-21T07:22:05;0.30;;;0.30;;
51961;SDS011;37986;51.238;17.128;2023-11-21T07:24:32;0.20;;;0.20;;
51961;SDS011;37986;51.238;17.128;2023-11-21T07:26:58;0.20;;;0.20;;
51961;SDS011;37986;51.238;17.128;2023-11-21T07:29:25;0.20;;;0.20;;
51961;SDS011;37986;51.238;17.128;2023-11-21T07:31:52;0.20;;;0.20;;
51961;SDS011;37986;51.238;17.128;2023-11-21T07:34:20;0.20;;;0.20;;
51961;SDS011;37986;51.238;17.128;2023-11-21T07:36:47;0.30;;;0.30;;
51961;SDS011;37986;51.238;17.128;2023-11-21T07:39:13;0.90;;;0.90;;
51961;SDS011;37986;51.238;17.128;2023-11-21T07:41:42;0.20;;;0.20;;
51961;SDS011;37986;51.238;17.128;2023-11-21T07:44:15;0.30;;;0.30;;
51961;SDS011;37986;51.238;17.128;2023-11-21T07:46:43;0.20;;;0.20;;
51961;SDS011;37986;51.238;17.128;2023-11-21T07:49:10;0.30;;;0.30;;
51961;SDS011;37986;51.238;17.128;2023-11-21T07:51:37;0.30;;;0.30;;
51961;SDS011;37986;51.238;17.128;2023-11-21T07:54:03;0.20;;;0.20;;
51961;SDS011;37986;51.238;17.128;2023-11-21T07:56:30;0.20;;;0.20;;
51961;SDS011;37986;51.238;17.128;2023-11-21T07:58:56;1.20;;;1.00;;
51961;SDS011;37986;51.238;17.128;2023-11-21T08:01:23;0.30;;;0.30;;
51961;SDS011;37986;51.238;17.128;2023-11-21T08:03:49;0.20;;;0.20;;
51961;SDS011;37986;51.238;17.128;2023-11-21T08:06:18;1.10;;;1.10;;
51961;SDS011;37986;51.238;17.128;2023-11-21T08:08:45;0.30;;;0.30;;
51961;SDS011;37986;51.238;17.128;2023-11-21T08:11:12;0.20;;;0.20;;
51961;SDS011;37986;51.238;17.128;2023-11-21T08:13:39;0.20;;;0.20;;
51961;SDS011;37986;51.238;17.128;2023-11-21T08:16:05;0.30;;;0.30;;
51961;SDS011;37986;51.238;17.128;2023-11-21T08:18:33;0.20;;;0.20;;
51961;SDS011;37986;51.238;17.128;2023-11-21T08:21:00;0.30;;;0.30;;
51961;SDS011;37986;51.238;17.128;2023-11-21T08:23:27;0.30;;;0.30;;
51961;SDS011;37986;51.238;17.128;2023-11-21T08:25:54;0.20;;;0.20;;
51961;SDS011;37986;51.238;17.128;2023-11-21T08:28:21;0.30;;;0.30;;
51961;SDS011;37986;51.238;17.128;2023-11-21T08:30:52;0.20;;;0.20;;
51961;SDS011;37986;51.238;17.128;2023-11-21T08:33:20;0.20;;;0.20;;
51961;SDS011;37986;51.238;17.128;2023-11-21T08:35:47;0.20;;;0.20;;
51961;SDS011;37986;51.238;17.128;2023-11-21T08:38:14;0.20;;;0.20;;
51961;SDS011;37986;51.238;17.128;2023-11-21T08:40:41;0.20;;;0.20;;
51961;SDS011;37986;51.238;17.128;2023-11-21T08:43:07;0.30;;;0.30;;
51961;SDS011;37986;51.238;17.128;2023-11-21T08:45:34;0.20;;;0.20;;
51961;SDS011;37986;51.238;17.128;2023-11-21T08:48:01;0.20;;;0.20;;
51961;SDS011;37986;51.238;17.128;2023-11-21T08:50:28;0.30;;;0.30;;
51961;SDS011;37986;51.238;17.128;2023-11-21T08:52:55;0.20;;;0.20;;
51961;SDS011;37986;51.238;17.128;2023-11-21T08:55:21;0.20;;;0.20;;
51961;SDS011;37986;51.238;17.128;2023-11-21T08:57:48;0.20;;;0.20;;
51961;SDS011;37986;51.238;17.128;2023-11-21T09:00:15;0.30;;;0.30;;
51961;SDS011;37986;51.238;17.128;2023-11-21T09:02:43;0.30;;;0.30;;
51961;SDS011;37986;51.238;17.128;2023-11-21T09:05:10;3.90;;;1.60;;
51961;SDS011;37986;51.238;17.128;2023-11-21T09:07:38;0.80;;;0.70;;
51961;SDS011;37986;51.238;17.128;2023-11-21T09:10:07;0.20;;;0.20;;
51961;SDS011;37986;51.238;17.128;2023-11-21T09:12:35;0.20;;;0.20;;
51961;SDS011;37986;51.238;17.128;2023-11-21T09:15:06;0.20;;;0.20;;
51961;SDS011;37986;51.238;17.128;2023-11-21T09:17:33;0.30;;;0.30;;
51961;SDS011;37986;51.238;17.128;2023-11-21T09:20:02;0.30;;;0.30;;
51961;SDS011;37986;51.238;17.128;2023-11-21T09:22:31;0.20;;;0.20;;
51961;SDS011;37986;51.238;17.128;2023-11-21T09:24:58;0.20;;;0.20;;
51961;SDS011;37986;51.238;17.128;2023-11-21T09:27:25;1.10;;;1.00;;
51961;SDS011;37986;51.238;17.128;2023-11-21T09:29:54;0.30;;;0.30;;
51961;SDS011;37986;51.238;17.128;2023-11-21T09:32:21;0.40;;;0.40;;
51961;SDS011;37986;51.238;17.128;2023-11-21T09:34:51;4.90;;;4.60;;
51961;SDS011;37986;51.238;17.128;2023-11-21T09:37:17;0.20;;;0.20;;
51961;SDS011;37986;51.238;17.128;2023-11-21T09:39:45;0.30;;;0.30;;
51961;SDS011;37986;51.238;17.128;2023-11-21T09:42:15;0.30;;;0.30;;
51961;SDS011;37986;51.238;17.128;2023-11-21T09:47:31;0.20;;;0.20;;
51961;SDS011;37986;51.238;17.128;2023-11-21T09:49:58;0.20;;;0.20;;
51961;SDS011;37986;51.238;17.128;2023-11-21T09:52:28;0.30;;;0.30;;
51961;SDS011;37986;51.238;17.128;2023-11-21T09:54:55;0.30;;;0.30;;
51961;SDS011;37986;51.238;17.128;2023-11-21T09:57:25;5.10;;;3.90;;
51961;SDS011;37986;51.238;17.128;2023-11-21T09:59:52;0.30;;;0.30;;
51961;SDS011;37986;51.238;17.128;2023-11-21T10:02:25;1.30;;;1.30;;
51961;SDS011;37986;51.238;17.128;2023-11-21T10:04:54;1.20;;;1.20;;
51961;SDS011;37986;51.238;17.128;2023-11-21T10:07:22;0.30;;;0.30;;
51961;SDS011;37986;51.238;17.128;2023-11-21T10:09:50;1.20;;;1.10;;
51961;SDS011;37986;51.238;17.128;2023-11-21T10:12:17;0.30;;;0.30;;
51961;SDS011;37986;51.238;17.128;2023-11-21T10:14:44;0.70;;;0.70;;
51961;SDS011;37986;51.238;17.128;2023-11-21T10:17:15;1.90;;;1.80;;
51961;SDS011;37986;51.238;17.128;2023-11-21T10:19:47;1.40;;;1.40;;
51961;SDS011;37986;51.238;17.128;2023-11-21T10:22:15;1.50;;;1.40;;
51961;SDS011;37986;51.238;17.128;2023-11-21T10:24:42;0.50;;;0.50;;
51961;SDS011;37986;51.238;17.128;2023-11-21T10:27:09;1.00;;;1.00;;
51961;SDS011;37986;51.238;17.128;2023-11-21T10:29:36;1.20;;;1.20;;
51961;SDS011;37986;51.238;17.128;2023-11-21T10:32:02;0.30;;;0.30;;
51961;SDS011;37986;51.238;17.128;2023-11-21T10:34:29;0.50;;;0.50;;
51961;SDS011;37986;51.238;17.128;2023-11-21T10:36:56;2.30;;;1.10;;
51961;SDS011;37986;51.238;17.128;2023-11-21T10:39:24;1.40;;;1.30;;
51961;SDS011;37986;51.238;17.128;2023-11-21T10:41:57;2.20;;;2.10;;
51961;SDS011;37986;51.238;17.128;2023-11-21T10:44:23;1.70;;;1.60;;
51961;SDS011;37986;51.238;17.128;2023-11-21T10:46:51;0.80;;;0.80;;
51961;SDS011;37986;51.238;17.128;2023-11-21T10:49:22;2.00;;;1.80;;
51961;SDS011;37986;51.238;17.128;2023-11-21T10:51:51;0.50;;;0.50;;
51961;SDS011;37986;51.238;17.128;2023-11-21T10:54:23;1.50;;;0.80;;
51961;SDS011;37986;51.238;17.128;2023-11-21T10:56:58;0.70;;;0.70;;
51961;SDS011;37986;51.238;17.128;2023-11-21T10:59:30;3.00;;;2.80;;
51961;SDS011;37986;51.238;17.128;2023-11-21T11:01:57;7.80;;;4.20;;
51961;SDS011;37986;51.238;17.128;2023-11-21T11:04:24;2.20;;;1.30;;
51961;SDS011;37986;51.238;17.128;2023-11-21T11:07:02;2.10;;;1.40;;
51961;SDS011;37986;51.238;17.128;2023-11-21T11:09:30;1.10;;;1.10;;
51961;SDS011;37986;51.238;17.128;2023-11-21T11:11:58;1.10;;;1.00;;
51961;SDS011;37986;51.238;17.128;2023-11-21T11:14:25;0.50;;;0.50;;
51961;SDS011;37986;51.238;17.128;2023-11-21T11:16:53;1.50;;;1.20;;
51961;SDS011;37986;51.238;17.128;2023-11-21T11:19:21;2.70;;;1.60;;
51961;SDS011;37986;51.238;17.128;2023-11-21T11:25:03;6.90;;;6.60;;
51961;SDS011;37986;51.238;17.128;2023-11-21T11:30:47;24.80;;;23.70;;
51961;SDS011;37986;51.238;17.128;2023-11-21T11:33:38;1999.90;;;999.90;;
51961;SDS011;37986;51.238;17.128;2023-11-21T11:36:27;2.50;;;1.40;;
51961;SDS011;37986;51.238;17.128;2023-11-21T11:38:58;1.80;;;1.70;;
51961;SDS011;37986;51.238;17.128;2023-11-21T11:41:30;1.50;;;1.30;;
51961;SDS011;37986;51.238;17.128;2023-11-21T11:43:59;0.40;;;0.40;;
51961;SDS011;37986;51.238;17.128;2023-11-21T11:46:40;5.30;;;3.00;;
51961;SDS011;37986;51.238;17.128;2023-11-21T11:49:24;2.90;;;1.00;;
51961;SDS011;37986;51.238;17.128;2023-11-21T11:54:56;25.00;;;9.20;;
51961;SDS011;37986;51.238;17.128;2023-11-21T11:57:25;2.40;;;2.30;;
51961;SDS011;37986;51.238;17.128;2023-11-21T12:05:15;1.20;;;1.20;;
51961;SDS011;37986;51.238;17.128;2023-11-21T12:07:54;0.60;;;0.60;;
51961;SDS011;37986;51.238;17.128;2023-11-21T12:10:24;2.50;;;1.10;;
51961;SDS011;37986;51.238;17.128;2023-11-21T12:12:53;4.30;;;3.10;;
51961;SDS011;37986;51.238;17.128;2023-11-21T12:15:19;1.90;;;1.80;;
51961;SDS011;37986;51.238;17.128;2023-11-21T12:17:47;1.00;;;1.00;;
51961;SDS011;37986;51.238;17.128;2023-11-21T12:20:19;0.90;;;0.90;;
51961;SDS011;37986;51.238;17.128;2023-11-21T12:22:50;0.50;;;0.50;;
51961;SDS011;37986;51.238;17.128;2023-11-21T12:25:21;0.40;;;0.40;;
51961;SDS011;37986;51.238;17.128;2023-11-21T12:27:49;4.00;;;3.70;;
51961;SDS011;37986;51.238;17.128;2023-11-21T12:30:18;4.40;;;4.30;;
51961;SDS011;37986;51.238;17.128;2023-11-21T12:32:49;1999.90;;;999.90;;
51961;SDS011;37986;51.238;17.128;2023-11-21T12:35:20;3.70;;;3.60;;
51961;SDS011;37986;51.238;17.128;2023-11-21T12:37:50;1999.90;;;999.90;;
51961;SDS011;37986;51.238;17.128;2023-11-21T12:40:18;1999.90;;;999.90;;
51961;SDS011;37986;51.238;17.128;2023-11-21T12:42:45;1999.90;;;999.90;;
51961;SDS011;37986;51.238;17.128;2023-11-21T12:45:24;1999.90;;;999.90;;
51961;SDS011;37986;51.238;17.128;2023-11-21T12:50:26;1999.90;;;999.90;;
51961;SDS011;37986;51.238;17.128;2023-11-21T12:55:29;1999.90;;;999.90;;
51961;SDS011;37986;51.238;17.128;2023-11-21T12:57:56;1999.90;;;999.90;;
51961;SDS011;37986;51.238;17.128;2023-11-21T13:00:33;1999.90;;;999.90;;
51961;SDS011;37986;51.238;17.128;2023-11-21T13:03:07;37.00;;;35.20;;
51961;SDS011;37986;51.238;17.128;2023-11-21T13:05:38;6.60;;;4.60;;
51961;SDS011;37986;51.238;17.128;2023-11-21T13:08:09;18.90;;;18.00;;
